Time;durP1;ratioP1;P1;durP2;ratioP2;P2;SDS_P1;SDS_P2;PMS_P1;PMS_P2;Temp;Humidity;BMP_temperature;BMP_pressure;BME280_temperature;BME280_humidity;BME280_pressure;Samples;Min_cycle;Max_cycle;Signal;HPM_P1;HPM_P2
2021/11/13 00:00:50;;;;;;;0.47;0.47;;;;;;;12.91;69.38;100941.88;5035814;28;20032;-85
2021/11/13 00:03:16;;;;;;;0.45;0.45;;;;;;;12.90;69.58;100940.13;5035969;28;20455;-83
2021/11/13 00:05:43;;;;;;;0.20;0.20;;;;;;;12.88;69.32;100938.41;5035639;28;20056;-83
2021/11/13 00:08:10;;;;;;;0.40;0.40;;;;;;;12.89;69.13;100938.38;5035921;28;20037;-83
2021/11/13 00:10:37;;;;;;;0.95;0.75;;;;;;;12.91;68.79;100935.66;5035280;28;20028;-84
2021/11/13 00:13:06;;;;;;;0.77;0.77;;;;;;;12.93;68.51;100936.50;5036323;28;20025;-83
2021/11/13 00:15:33;;;;;;;1.40;1.38;;;;;;;12.92;68.78;100929.44;5036245;28;20079;-84
2021/11/13 00:17:59;;;;;;;0.65;0.65;;;;;;;12.93;69.16;100923.19;5036736;28;20414;-84
2021/11/13 00:20:27;;;;;;;5.43;2.70;;;;;;;12.88;68.92;100928.63;5035658;28;20457;-84
2021/11/13 00:22:54;;;;;;;0.77;0.52;;;;;;;12.94;68.71;100925.81;5035566;28;20036;-82
2021/11/13 00:25:21;;;;;;;1.65;1.42;;;;;;;12.83;69.06;100922.59;5036283;28;20029;-84
2021/11/13 00:27:47;;;;;;;2.22;2.08;;;;;;;12.90;68.57;100917.97;5035183;28;20034;-85
2021/11/13 00:30:14;;;;;;;0.10;0.10;;;;;;;12.81;69.30;100929.75;5034851;28;20029;-84
2021/11/13 00:32:41;;;;;;;0.40;0.40;;;;;;;12.84;69.06;100918.16;5035334;28;20096;-84
2021/11/13 00:35:08;;;;;;;1.02;0.88;;;;;;;12.75;69.79;100925.47;5035742;28;20120;-83
2021/11/13 00:37:35;;;;;;;0.85;0.85;;;;;;;12.80;69.09;100925.34;5036052;28;20032;-82
2021/11/13 00:40:03;;;;;;;0.17;0.17;;;;;;;12.79;69.38;100915.63;5033843;28;20033;-84
2021/11/13 00:42:29;;;;;;;0.30;0.30;;;;;;;12.83;69.24;100913.75;5034666;28;20084;-86
2021/11/13 00:44:55;;;;;;;0.30;0.30;;;;;;;12.82;69.61;100920.84;5034579;28;20053;-86
2021/11/13 00:47:21;;;;;;;0.50;0.50;;;;;;;12.80;69.92;100906.72;5035326;28;20457;-87
2021/11/13 00:49:47;;;;;;;2.33;0.32;;;;;;;12.81;69.73;100903.16;5035417;28;20021;-86
2021/11/13 00:52:14;;;;;;;1.75;1.65;;;;;;;12.78;70.31;100897.91;5033988;28;20057;-86
2021/11/13 00:54:40;;;;;;;0.60;0.60;;;;;;;12.88;69.79;100899.38;5034225;28;20472;-86
2021/11/13 00:57:08;;;;;;;2.10;1.55;;;;;;;12.81;70.59;100896.97;5034959;28;20116;-87
2021/11/13 00:59:36;;;;;;;0.93;0.93;;;;;;;12.84;70.61;100887.09;5035097;28;20112;-90
2021/11/13 01:02:03;;;;;;;1.20;0.88;;;;;;;12.86;70.35;100885.28;5035087;28;20033;-90
2021/11/13 01:04:29;;;;;;;0.25;0.25;;;;;;;12.83;71.22;100885.34;5035154;28;20068;-89
2021/11/13 01:06:55;;;;;;;2.03;1.92;;;;;;;12.85;71.11;100883.53;5036139;28;20534;-90
2021/11/13 01:09:21;;;;;;;0.10;0.10;;;;;;;12.91;70.78;100888.69;5035748;28;20456;-89
2021/11/13 01:11:48;;;;;;;0.80;0.80;;;;;;;12.97;70.87;100886.75;5035703;28;20041;-89
2021/11/13 01:14:14;;;;;;;0.35;0.35;;;;;;;12.92;70.99;100882.44;5036603;28;20025;-90
2021/11/13 01:16:40;;;;;;;0.22;0.22;;;;;;;12.84;71.83;100871.16;5035599;28;20105;-90
2021/11/13 01:19:07;;;;;;;0.93;0.80;;;;;;;12.95;71.35;100884.16;5035460;28;20052;-88
2021/11/13 01:21:33;;;;;;;0.65;0.65;;;;;;;12.93;71.59;100876.22;5035805;28;20030;-88
2021/11/13 01:24:00;;;;;;;0.30;0.30;;;;;;;13.02;70.48;100879.50;5036017;28;20131;-88
2021/11/13 01:26:26;;;;;;;0.88;0.88;;;;;;;13.12;70.41;100875.66;5035579;28;20071;-85
2021/11/13 01:28:52;;;;;;;0.95;0.95;;;;;;;13.02;70.40;100875.06;5035035;28;20495;-89
2021/11/13 01:31:18;;;;;;;0.20;0.20;;;;;;;13.08;70.71;100863.38;5035449;28;20083;-90
2021/11/13 01:33:45;;;;;;;1.55;1.40;;;;;;;13.12;70.22;100872.97;5036350;28;20029;-89
2021/11/13 01:36:13;;;;;;;3.25;1.33;;;;;;;13.09;70.61;100870.44;5034955;28;20033;-89
2021/11/13 01:38:40;;;;;;;0.20;0.20;;;;;;;13.09;70.93;100857.13;5034990;28;20041;-91
2021/11/13 01:41:08;;;;;;;0.60;0.60;;;;;;;13.18;70.46;100867.47;5033225;28;20025;-87
2021/11/13 01:43:38;;;;;;;0.20;0.20;;;;;;;13.18;70.82;100864.81;5034626;28;20029;-87
2021/11/13 01:46:07;;;;;;;0.35;0.22;;;;;;;13.24;70.66;100858.44;5033291;28;20026;-92
2021/11/13 01:48:33;;;;;;;0.30;0.30;;;;;;;13.26;70.48;100859.28;5033439;28;20519;-90
2021/11/13 01:51:00;;;;;;;0.20;0.20;;;;;;;13.28;71.11;100857.44;5034606;28;20120;-92
2021/11/13 01:53:28;;;;;;;0.57;0.55;;;;;;;13.22;70.91;100862.94;5034713;28;20060;-89
2021/11/13 01:55:56;;;;;;;0.10;0.10;;;;;;;13.27;70.80;100868.97;5035041;28;20461;-91
2021/11/13 01:58:24;;;;;;;3.30;1.02;;;;;;;13.25;71.08;100863.72;5034952;28;20049;-91
2021/11/13 02:00:54;;;;;;;3.40;1.00;;;;;;;13.34;70.77;100859.03;5035365;28;20392;-90
2021/11/13 02:03:23;;;;;;;0.32;0.32;;;;;;;13.37;70.91;100864.25;5034482;28;20021;-90
2021/11/13 02:05:51;;;;;;;1.00;1.00;;;;;;;13.39;71.04;100855.34;5034641;28;20033;-91
2021/11/13 02:08:18;;;;;;;0.17;0.17;;;;;;;13.39;71.18;100846.50;5034695;28;20033;-86
2021/11/13 02:10:46;;;;;;;0.32;0.32;;;;;;;13.36;71.00;100852.75;5034889;28;20532;-85
2021/11/13 02:13:12;;;;;;;1.88;0.95;;;;;;;13.42;71.34;100849.03;5033668;28;20469;-90
2021/11/13 02:15:39;;;;;;;0.10;0.10;;;;;;;13.47;70.82;100851.56;5034512;28;20101;-91
2021/11/13 02:18:05;;;;;;;0.13;0.13;;;;;;;13.49;71.01;100847.94;5034927;28;20121;-91
2021/11/13 02:20:34;;;;;;;0.10;0.10;;;;;;;13.53;71.28;100844.28;5034642;28;20030;-87
2021/11/13 02:23:09;;;;;;;0.10;0.10;;;;;;;13.56;70.72;100841.50;5034357;28;20120;-89
2021/11/13 02:25:35;;;;;;;0.00;0.00;;;;;;;13.58;71.21;100842.31;5033547;28;20072;-92
2021/11/13 02:28:05;;;;;;;0.35;0.35;;;;;;;13.63;70.71;100838.63;5035192;28;20044;-93
2021/11/13 02:30:31;;;;;;;1.98;0.98;;;;;;;13.67;70.81;100845.59;5035107;28;20088;-92
2021/11/13 02:32:58;;;;;;;0.28;0.28;;;;;;;13.69;70.79;100833.97;5035462;28;20036;-94
2021/11/13 02:35:28;;;;;;;0.10;0.10;;;;;;;13.66;70.89;100838.53;5038634;28;20064;-88
2021/11/13 02:37:54;;;;;;;2.40;0.82;;;;;;;13.56;71.50;100832.66;5040712;28;20048;-92
2021/11/13 02:40:21;;;;;;;1.60;1.45;;;;;;;13.56;71.46;100830.84;5042301;28;20037;-87
2021/11/13 02:42:47;;;;;;;2.35;1.23;;;;;;;13.69;71.28;100830.44;5047096;28;20037;-93
2021/11/13 02:45:15;;;;;;;0.38;0.38;;;;;;;13.68;71.18;100831.34;5039827;28;20033;-93
2021/11/13 02:47:45;;;;;;;0.50;0.50;;;;;;;13.70;71.57;100833.03;5039734;28;20029;-92
2021/11/13 02:50:13;;;;;;;1.23;1.13;;;;;;;13.76;71.18;100832.00;5039464;28;20025;-92
2021/11/13 02:53:01;;;;;;;0.30;0.30;;;;;;;13.65;71.73;100834.13;5038635;28;20128;-89
2021/11/13 02:55:28;;;;;;;0.03;0.03;;;;;;;13.74;71.32;100836.47;5039109;28;20037;-92
2021/11/13 02:57:55;;;;;;;0.10;0.10;;;;;;;13.75;71.45;100833.75;5036536;28;20048;-91
2021/11/13 03:00:28;;;;;;;0.10;0.10;;;;;;;13.81;71.21;100838.03;5037595;28;20030;-91
2021/11/13 03:02:55;;;;;;;0.20;0.20;;;;;;;13.79;71.32;100839.84;5038688;28;20040;-93
2021/11/13 03:08:09;;;;;;;0.00;0.00;;;;;;;13.83;71.12;100845.94;5092377;27;20395;-92
2021/11/13 03:10:37;;;;;;;0.10;0.10;;;;;;;13.81;71.14;100845.16;5070804;28;20040;-92
2021/11/13 03:13:05;;;;;;;0.57;0.57;;;;;;;13.79;71.43;100845.19;5052970;28;20029;-92
2021/11/13 03:15:32;;;;;;;0.70;0.70;;;;;;;13.82;71.25;100841.53;5053043;28;20040;-93
2021/11/13 03:17:59;;;;;;;0.30;0.30;;;;;;;13.81;71.27;100838.03;5052749;28;20088;-92
2021/11/13 03:20:28;;;;;;;0.32;0.32;;;;;;;13.82;71.24;100834.44;5052321;28;20045;-92
2021/11/13 03:22:57;;;;;;;0.30;0.30;;;;;;;13.88;70.85;100834.25;5051966;28;20030;-93
2021/11/13 03:25:33;;;;;;;0.20;0.20;;;;;;;13.93;70.99;100841.19;5051428;28;20113;-92
2021/11/13 03:28:04;;;;;;;0.15;0.15;;;;;;;13.83;71.16;100837.97;5051243;28;20033;-93
2021/11/13 03:30:30;;;;;;;0.10;0.10;;;;;;;13.81;71.26;100831.84;5051719;28;20028;-90
2021/11/13 03:32:57;;;;;;;0.10;0.10;;;;;;;13.80;71.24;100825.63;5052704;28;20486;-92
2021/11/13 03:35:31;;;;;;;0.30;0.30;;;;;;;13.79;71.20;100833.66;5052142;28;20034;-90
2021/11/13 03:38:05;;;;;;;0.10;0.10;;;;;;;13.89;70.79;100833.31;5051688;28;20044;-91
2021/11/13 03:40:32;;;;;;;1.38;1.38;;;;;;;13.86;70.78;100835.22;5051491;28;20079;-91
2021/11/13 03:42:58;;;;;;;0.57;0.57;;;;;;;13.83;71.32;100836.19;5051386;28;20116;-91
2021/11/13 03:45:25;;;;;;;0.82;0.82;;;;;;;13.82;71.03;100837.09;5051065;28;20036;-90
2021/11/13 03:47:51;;;;;;;0.40;0.40;;;;;;;13.84;70.89;100831.72;5050771;28;20033;-91
2021/11/13 03:50:17;;;;;;;0.20;0.20;;;;;;;13.83;71.08;100841.53;5051984;28;20488;-90
2021/11/13 03:52:43;;;;;;;0.10;0.10;;;;;;;13.89;71.21;100835.97;5051998;28;20031;-90
2021/11/13 03:55:10;;;;;;;0.10;0.10;;;;;;;13.90;71.15;100832.38;5051949;28;20116;-91
2021/11/13 03:57:36;;;;;;;0.10;0.10;;;;;;;13.97;70.78;100842.81;5051380;28;20075;-92
2021/11/13 04:00:06;;;;;;;0.52;0.52;;;;;;;14.01;70.59;100849.81;5052334;28;20087;-93
2021/11/13 04:02:32;;;;;;;0.95;0.95;;;;;;;13.99;70.42;100852.50;5051076;28;20025;-93
2021/11/13 04:04:59;;;;;;;0.10;0.10;;;;;;;13.93;70.92;100863.34;5052714;28;20037;-93
2021/11/13 04:07:25;;;;;;;0.10;0.10;;;;;;;13.88;71.31;100865.31;5052075;28;20388;-92
2021/11/13 04:09:51;;;;;;;0.30;0.30;;;;;;;13.84;71.62;100869.88;5053471;28;20108;-91
2021/11/13 04:12:17;;;;;;;0.10;0.10;;;;;;;13.84;71.48;100869.88;5053311;28;20029;-93
2021/11/13 04:14:45;;;;;;;0.90;0.90;;;;;;;13.78;71.80;100870.06;5052133;28;20112;-89
2021/11/13 04:17:21;;;;;;;0.17;0.17;;;;;;;13.89;71.55;100875.03;5051063;28;20469;-90
2021/11/13 04:20:05;;;;;;;0.10;0.10;;;;;;;13.89;70.95;100872.38;5038496;28;20116;-92
2021/11/13 04:22:38;;;;;;;1.52;1.42;;;;;;;13.94;71.20;100867.78;5038677;28;20037;-91
2021/11/13 04:25:10;;;;;;;0.90;0.90;;;;;;;14.00;70.92;100874.69;5038049;28;20033;-91
2021/11/13 04:27:37;;;;;;;0.00;0.00;;;;;;;13.97;70.82;100881.00;5037769;28;20116;-89
2021/11/13 04:30:06;;;;;;;0.13;0.13;;;;;;;14.02;70.84;100883.53;5038022;28;20056;-91
2021/11/13 04:32:34;;;;;;;0.10;0.10;;;;;;;14.03;70.92;100883.47;5038703;28;20112;-91
2021/11/13 04:37:47;;;;;;;0.10;0.10;;;;;;;14.07;70.85;100876.22;5093271;27;20410;-89
2021/11/13 04:40:14;;;;;;;0.10;0.10;;;;;;;14.08;70.82;100877.94;5072888;28;20078;-91
2021/11/13 04:42:40;;;;;;;0.13;0.13;;;;;;;14.10;70.53;100872.59;5053896;28;20049;-89
2021/11/13 04:45:07;;;;;;;0.15;0.15;;;;;;;14.08;70.50;100876.19;5053368;28;20496;-92
2021/11/13 04:47:34;;;;;;;0.17;0.17;;;;;;;14.10;70.47;100875.25;5051860;28;20435;-88
2021/11/13 04:50:02;;;;;;;0.10;0.10;;;;;;;14.10;70.25;100875.25;5052457;28;20041;-90
2021/11/13 04:52:28;;;;;;;0.10;0.10;;;;;;;14.07;70.34;100877.09;5052321;28;20029;-89
2021/11/13 04:54:55;;;;;;;0.10;0.10;;;;;;;14.07;70.24;100877.09;5051751;28;20037;-89
2021/11/13 04:57:22;;;;;;;0.00;0.00;;;;;;;14.08;70.29;100889.50;5052314;28;20052;-88
2021/11/13 04:59:48;;;;;;;0.10;0.10;;;;;;;14.09;70.25;100890.34;5050985;28;20036;-87
2021/11/13 05:02:14;;;;;;;0.10;0.10;;;;;;;14.10;70.30;100886.78;5050826;28;20365;-91
2021/11/13 05:04:40;;;;;;;0.10;0.10;;;;;;;14.11;70.27;100888.53;5052182;28;20025;-95
2021/11/13 05:07:06;;;;;;;0.20;0.20;;;;;;;14.10;70.49;100892.09;5052063;28;20104;-92
2021/11/13 05:09:32;;;;;;;0.05;0.05;;;;;;;14.11;70.35;100893.84;5051741;28;20037;-91
2021/11/13 05:11:59;;;;;;;0.00;0.00;;;;;;;14.12;70.26;100905.38;5051497;28;20048;-90
2021/11/13 05:14:25;;;;;;;0.10;0.10;;;;;;;14.10;70.17;100901.91;5050908;28;20483;-87
2021/11/13 05:16:51;;;;;;;0.08;0.08;;;;;;;14.11;70.15;100899.19;5051892;28;20040;-92
2021/11/13 05:19:17;;;;;;;0.10;0.10;;;;;;;14.08;70.29;100913.47;5052389;28;20546;-87
2021/11/13 05:21:43;;;;;;;0.10;0.10;;;;;;;14.09;70.28;100901.00;5052231;28;20025;-89
2021/11/13 05:24:09;;;;;;;0.10;0.10;;;;;;;14.14;70.03;100916.84;5051848;28;20464;-92
2021/11/13 05:26:35;;;;;;;0.10;0.10;;;;;;;14.15;70.25;100916.78;5051935;28;20033;-87
2021/11/13 05:29:01;;;;;;;0.77;0.45;;;;;;;14.16;69.96;100913.22;5051980;28;20103;-88
2021/11/13 05:31:28;;;;;;;0.20;0.20;;;;;;;14.15;70.21;100916.78;5050593;28;20127;-91
2021/11/13 05:33:54;;;;;;;0.10;0.10;;;;;;;14.16;70.21;100913.22;5050719;28;20048;-89
2021/11/13 05:36:20;;;;;;;0.17;0.17;;;;;;;14.17;70.00;100909.63;5050946;28;20069;-88
2021/11/13 05:38:46;;;;;;;0.10;0.10;;;;;;;14.17;70.15;100912.28;5050884;28;20056;-88
2021/11/13 05:41:12;;;;;;;0.10;0.10;;;;;;;14.17;70.04;100914.09;5050751;28;20025;-89
2021/11/13 05:43:39;;;;;;;0.10;0.10;;;;;;;14.16;69.89;100923.88;5051866;28;20052;-87
2021/11/13 05:46:05;;;;;;;0.10;0.10;;;;;;;14.19;70.08;100928.22;5051105;28;20468;-86
2021/11/13 05:48:31;;;;;;;0.10;0.10;;;;;;;14.17;70.04;100922.09;5040630;28;20472;-88
2021/11/13 05:50:57;;;;;;;0.10;0.10;;;;;;;14.18;70.13;100927.38;5040486;28;20029;-91
2021/11/13 05:53:23;;;;;;;0.10;0.10;;;;;;;14.18;70.20;100924.69;5040161;28;20057;-95
2021/11/13 05:55:49;;;;;;;0.10;0.10;;;;;;;14.21;69.88;100923.72;5038072;28;20025;-92
2021/11/13 05:58:18;;;;;;;0.00;0.00;;;;;;;14.22;69.79;100929.00;5038989;28;20036;-92
2021/11/13 06:00:45;;;;;;;0.25;0.25;;;;;;;14.21;69.99;100927.25;5038035;28;20028;-87
2021/11/13 06:03:11;;;;;;;0.10;0.10;;;;;;;14.21;70.23;100927.25;5037508;28;20033;-91
2021/11/13 06:05:37;;;;;;;0.10;0.10;;;;;;;14.20;69.99;100925.50;5036390;28;20021;-91
2021/11/13 06:08:04;;;;;;;0.10;0.10;;;;;;;14.21;69.97;100927.25;5036808;28;20026;-91
2021/11/13 06:10:30;;;;;;;0.10;0.10;;;;;;;14.22;69.90;100928.13;5036660;28;20412;-93
2021/11/13 06:12:56;;;;;;;0.13;0.13;;;;;;;14.21;70.07;100931.72;5037395;28;20075;-91
2021/11/13 06:15:22;;;;;;;0.00;0.00;;;;;;;14.22;70.03;100928.13;5037416;28;20076;-93
2021/11/13 06:17:49;;;;;;;0.10;0.10;;;;;;;14.23;70.07;100935.19;5036547;28;20072;-94
2021/11/13 06:20:16;;;;;;;0.10;0.10;;;;;;;14.23;69.90;100936.06;5036889;28;20080;-92
2021/11/13 06:22:43;;;;;;;0.03;0.03;;;;;;;14.22;70.15;100939.66;5036953;28;20080;-91
2021/11/13 06:25:10;;;;;;;0.10;0.10;;;;;;;14.16;70.32;100945.19;5036397;28;20021;-89
2021/11/13 06:27:38;;;;;;;0.10;0.10;;;;;;;14.17;70.24;100946.06;5036193;28;20052;-91
2021/11/13 06:30:06;;;;;;;0.10;0.10;;;;;;;14.19;70.29;100953.09;5035919;28;20406;-84
2021/11/13 06:32:33;;;;;;;0.10;0.10;;;;;;;14.23;70.13;100959.16;5035971;28;20124;-84
2021/11/13 06:34:59;;;;;;;0.00;0.00;;;;;;;14.21;70.20;100961.88;5035902;28;20025;-88
2021/11/13 06:37:27;;;;;;;0.10;0.10;;;;;;;14.24;70.07;100961.81;5036726;28;20041;-90
2021/11/13 06:39:53;;;;;;;0.10;0.10;;;;;;;14.24;70.09;100969.78;5036813;28;20030;-92
2021/11/13 06:42:20;;;;;;;0.10;0.10;;;;;;;14.26;70.25;100960.88;5050849;22;20038;-87
2021/11/13 06:44:46;;;;;;;0.00;0.00;;;;;;;14.28;70.36;100956.34;5035402;28;20034;-85
2021/11/13 06:47:12;;;;;;;0.10;0.10;;;;;;;14.23;70.31;100962.72;5035146;28;20044;-86
2021/11/13 06:49:38;;;;;;;0.10;0.10;;;;;;;14.25;70.48;100970.66;5035145;28;20033;-87
2021/11/13 06:52:04;;;;;;;0.10;0.10;;;;;;;14.19;70.47;100982.41;5034975;28;20034;-85
2021/11/13 06:54:30;;;;;;;0.10;0.10;;;;;;;14.21;70.28;100977.03;5035348;28;20033;-85
2021/11/13 06:56:57;;;;;;;0.10;0.10;;;;;;;14.22;70.38;100987.63;5034642;28;20364;-84
2021/11/13 06:59:23;;;;;;;0.55;0.45;;;;;;;14.20;70.38;100985.94;5034382;28;20030;-87
2021/11/13 07:01:52;;;;;;;0.10;0.10;;;;;;;14.23;70.23;100994.69;5035221;28;20071;-86
2021/11/13 07:04:18;;;;;;;1.10;1.08;;;;;;;14.19;70.39;100993.06;5035176;28;20044;-87
2021/11/13 07:06:44;;;;;;;0.10;0.10;;;;;;;14.23;70.23;101005.34;5034798;28;20021;-87
2021/11/13 07:09:10;;;;;;;0.10;0.10;;;;;;;14.24;70.14;101012.44;5035107;28;20029;-85
2021/11/13 07:11:36;;;;;;;0.10;0.10;;;;;;;14.22;70.50;101010.75;5034742;28;20087;-86
2021/11/13 07:14:03;;;;;;;0.10;0.10;;;;;;;14.23;70.15;101018.69;5034876;28;20033;-87
2021/11/13 07:16:29;;;;;;;0.10;0.10;;;;;;;14.23;70.09;101017.78;5034616;28;20041;-87
2021/11/13 07:18:55;;;;;;;0.10;0.10;;;;;;;14.18;70.35;101017.97;5034988;28;20029;-86
2021/11/13 07:21:21;;;;;;;0.10;0.10;;;;;;;14.18;70.23;101028.63;5034926;28;20113;-87
2021/11/13 07:23:48;;;;;;;0.63;0.63;;;;;;;14.19;70.05;101035.69;5034532;28;20029;-86
2021/11/13 07:26:16;;;;;;;0.10;0.10;;;;;;;14.20;69.97;101039.22;5034845;28;20083;-83
2021/11/13 07:28:45;;;;;;;0.10;0.10;;;;;;;14.21;70.10;101039.16;5034948;28;20025;-88
2021/11/13 07:31:16;;;;;;;0.10;0.10;;;;;;;14.19;70.14;101042.81;5034669;28;20025;-87
2021/11/13 07:33:43;;;;;;;0.13;0.13;;;;;;;14.16;70.38;101048.25;5034583;28;20030;-88
2021/11/13 07:36:10;;;;;;;0.73;0.73;;;;;;;14.11;70.06;101036.88;5032693;28;20037;-87
2021/11/13 07:38:39;;;;;;;0.10;0.10;;;;;;;14.11;70.34;101045.72;5034254;28;20086;-88
2021/11/13 07:41:07;;;;;;;0.10;0.10;;;;;;;14.11;70.25;101058.19;5033869;28;20548;-86
2021/11/13 07:43:34;;;;;;;0.10;0.10;;;;;;;14.12;70.54;101066.13;5034086;28;20025;-87
2021/11/13 07:46:00;;;;;;;0.10;0.10;;;;;;;14.17;70.54;101063.31;5034334;28;20037;-87
2021/11/13 07:48:26;;;;;;;0.10;0.10;;;;;;;14.21;70.16;101064.97;5033993;28;20025;-87
2021/11/13 07:50:52;;;;;;;0.00;0.00;;;;;;;14.22;70.17;101064.91;5034364;28;20045;-86
2021/11/13 07:53:18;;;;;;;0.10;0.10;;;;;;;14.24;70.38;101068.41;5034014;28;20033;-87
2021/11/13 07:55:44;;;;;;;0.10;0.10;;;;;;;14.26;70.29;101072.81;5033603;28;20192;-86
2021/11/13 07:58:15;;;;;;;0.10;0.10;;;;;;;14.28;70.33;101071.84;5034339;28;20033;-88
2021/11/13 08:00:43;;;;;;;0.10;0.10;;;;;;;14.33;70.12;101071.69;5033783;28;20025;-87
2021/11/13 08:03:10;;;;;;;0.10;0.10;;;;;;;14.31;70.40;101071.72;5033706;28;20070;-87
2021/11/13 08:05:36;;;;;;;0.00;0.00;;;;;;;14.33;70.08;101074.34;5033708;28;20028;-87
2021/11/13 08:08:03;;;;;;;0.10;0.10;;;;;;;14.33;70.29;101075.22;5033165;28;20088;-86
2021/11/13 08:10:29;;;;;;;0.15;0.15;;;;;;;14.30;70.46;101071.78;5033700;28;20032;-87
2021/11/13 08:12:55;;;;;;;0.10;0.10;;;;;;;14.32;70.49;101072.63;5034154;28;20385;-86
2021/11/13 08:15:21;;;;;;;0.10;0.10;;;;;;;14.35;70.11;101083.16;5033564;28;20495;-86
2021/11/13 08:17:47;;;;;;;0.10;0.10;;;;;;;14.38;70.50;101085.72;5032115;28;20092;-87
2021/11/13 08:20:14;;;;;;;2.10;0.43;;;;;;;14.47;70.14;101087.25;5032789;28;20402;-87
2021/11/13 08:22:42;;;;;;;0.17;0.17;;;;;;;14.50;70.39;101090.66;5033781;28;20487;-87
2021/11/13 08:25:11;;;;;;;0.10;0.10;;;;;;;14.55;70.36;101099.41;5034008;28;20083;-88
2021/11/13 08:27:37;;;;;;;0.03;0.03;;;;;;;14.63;70.18;101098.25;5033534;28;20071;-87
2021/11/13 08:30:07;;;;;;;0.00;0.00;;;;;;;14.67;70.64;101100.81;5033425;28;20030;-87
2021/11/13 08:32:33;;;;;;;0.05;0.05;;;;;;;14.71;70.46;101101.59;5033209;28;20029;-88
2021/11/13 08:34:59;;;;;;;0.10;0.10;;;;;;;14.76;70.38;101107.63;5033655;28;20480;-88
2021/11/13 08:37:26;;;;;;;0.10;0.10;;;;;;;14.79;70.64;101106.66;5033447;28;20048;-87
2021/11/13 08:39:52;;;;;;;0.10;0.10;;;;;;;14.82;70.49;101106.56;5033374;28;20040;-86
2021/11/13 08:42:18;;;;;;;0.10;0.10;;;;;;;14.88;70.28;101107.22;5032971;28;20045;-87
2021/11/13 08:44:46;;;;;;;0.10;0.10;;;;;;;14.94;70.14;101106.16;5033350;28;20112;-87
2021/11/13 08:47:14;;;;;;;0.10;0.10;;;;;;;14.94;70.23;101103.50;5033513;28;20456;-84
2021/11/13 08:49:42;;;;;;;0.13;0.13;;;;;;;14.98;70.21;101114.94;5033971;28;20064;-86
2021/11/13 08:52:10;;;;;;;0.08;0.08;;;;;;;14.95;70.16;101109.69;5033017;28;20056;-85
2021/11/13 08:54:37;;;;;;;0.10;0.10;;;;;;;14.99;70.27;101114.00;5033206;28;20104;-84
2021/11/13 08:57:04;;;;;;;0.45;0.45;;;;;;;15.05;70.30;101111.09;5033639;28;20066;-89
2021/11/13 08:59:32;;;;;;;0.10;0.10;;;;;;;15.12;70.33;101118.00;5034199;28;20113;-83
2021/11/13 09:02:03;;;;;;;0.10;0.10;;;;;;;15.11;70.58;101120.72;5033061;28;20083;-83
2021/11/13 09:04:30;;;;;;;0.15;0.15;;;;;;;15.13;70.41;101119.75;5033101;28;20045;-90
2021/11/13 09:06:56;;;;;;;0.10;0.10;;;;;;;15.14;70.54;101116.16;5032823;28;20029;-87
2021/11/13 09:09:24;;;;;;;0.00;0.00;;;;;;;15.18;70.26;101125.78;5033527;28;20079;-83
2021/11/13 09:11:52;;;;;;;0.10;0.10;;;;;;;15.17;70.47;101125.84;5033513;28;20025;-86
2021/11/13 09:14:18;;;;;;;0.10;0.10;;;;;;;15.17;70.46;101125.84;5033595;28;20029;-86
2021/11/13 09:16:45;;;;;;;0.10;0.10;;;;;;;15.26;70.30;101124.66;5032213;28;20049;-84
2021/11/13 09:19:12;;;;;;;0.10;0.10;;;;;;;15.29;70.48;101130.75;5033227;28;20468;-87
2021/11/13 09:21:38;;;;;;;0.10;0.10;;;;;;;15.31;70.52;101133.38;5033074;28;20029;-88
2021/11/13 09:24:05;;;;;;;0.08;0.08;;;;;;;15.34;70.65;101139.47;5036086;28;20435;-83
2021/11/13 09:26:33;;;;;;;0.17;0.17;;;;;;;15.39;70.28;101142.00;5036733;28;20030;-88
2021/11/13 09:28:59;;;;;;;0.10;0.10;;;;;;;15.44;70.32;101140.03;5036493;28;20147;-89
2021/11/13 09:31:26;;;;;;;0.15;0.15;;;;;;;15.46;70.37;101148.81;5036546;28;20428;-88
2021/11/13 09:33:52;;;;;;;2.08;1.88;;;;;;;15.51;70.43;101140.66;5036218;28;20107;-89
2021/11/13 09:36:20;;;;;;;0.50;0.50;;;;;;;15.51;70.32;101141.56;5036612;28;20034;-88
2021/11/13 09:38:47;;;;;;;0.10;0.10;;;;;;;15.53;70.27;101145.00;5036387;28;20473;-89
2021/11/13 09:41:18;;;;;;;3.13;0.70;;;;;;;15.59;70.41;101146.59;5051653;22;20041;-89
2021/11/13 09:43:44;;;;;;;0.10;0.10;;;;;;;15.62;70.08;101142.94;5038648;28;20175;-88
2021/11/13 09:46:12;;;;;;;0.38;0.38;;;;;;;15.64;70.35;101141.09;5038388;28;20083;-87
2021/11/13 09:48:40;;;;;;;0.10;0.10;;;;;;;15.67;70.19;101143.66;5038193;28;20495;-82
2021/11/13 09:51:08;;;;;;;0.10;0.10;;;;;;;15.66;70.05;101149.91;5037005;28;20424;-91
2021/11/13 09:53:34;;;;;;;0.10;0.10;;;;;;;15.61;70.04;101151.88;5036603;28;20030;-87
2021/11/13 09:56:01;;;;;;;0.45;0.45;;;;;;;15.56;69.88;101167.22;5036468;28;20069;-85
2021/11/13 09:58:29;;;;;;;0.10;0.10;;;;;;;15.51;70.09;101168.25;5036327;28;20111;-85
2021/11/13 10:00:56;;;;;;;0.10;0.10;;;;;;;15.45;70.00;101162.25;5037428;28;20026;-85
2021/11/13 10:03:23;;;;;;;3.00;2.38;;;;;;;15.43;69.75;101169.44;5036479;28;20057;-84
2021/11/13 10:05:51;;;;;;;0.10;0.10;;;;;;;15.34;69.83;101173.31;5036849;28;20037;-86
2021/11/13 10:08:18;;;;;;;0.50;0.50;;;;;;;15.31;69.46;101176.06;5036308;28;20037;-85
2021/11/13 10:10:44;;;;;;;0.10;0.10;;;;;;;15.19;69.54;101188.91;5036949;28;20423;-84
2021/11/13 10:16:14;;;;;;;0.10;0.10;;;;;;;15.39;69.53;101184.72;5091855;27;20153;-82
2021/11/13 10:18:51;;;;;;;0.10;0.10;;;;;;;15.49;69.65;101191.47;5073112;28;20412;-84
2021/11/13 10:21:21;;;;;;;0.17;0.17;;;;;;;15.53;69.78;101187.75;5066122;28;20087;-85
2021/11/13 10:23:51;;;;;;;0.10;0.10;;;;;;;15.64;69.71;101186.50;5051026;28;20061;-84
2021/11/13 10:29:09;;;;;;;0.03;0.03;;;;;;;15.69;69.34;101193.41;5111949;27;20395;-84
2021/11/13 10:31:43;;;;;;;0.10;0.10;;;;;;;15.81;69.35;101196.56;5111567;28;20081;-84
2021/11/13 10:34:14;;;;;;;0.15;0.15;;;;;;;15.80;68.80;101193.03;5109797;28;20028;-85
2021/11/13 10:36:45;;;;;;;0.10;0.10;;;;;;;15.89;69.21;101194.53;5111669;28;20027;-84
2021/11/13 10:42:00;;;;;;;0.30;0.30;;;;;;;16.07;68.91;101198.31;5111320;27;20396;-85
2021/11/13 10:44:31;;;;;;;0.10;0.10;;;;;;;16.11;68.62;101205.31;5111851;28;20040;-85
2021/11/13 10:46:59;;;;;;;0.10;0.10;;;;;;;16.14;68.65;101201.66;5111539;28;20020;-85
2021/11/13 10:49:26;;;;;;;0.10;0.10;;;;;;;16.17;68.95;101199.72;5111492;28;20450;-83
2021/11/13 10:51:56;;;;;;;0.10;0.10;;;;;;;16.12;68.34;101201.69;5111254;28;20085;-85
2021/11/13 10:54:24;;;;;;;0.10;0.10;;;;;;;16.11;68.04;101202.63;5111614;28;20028;-84
2021/11/13 10:59:38;;;;;;;0.47;0.40;;;;;;;16.24;68.52;101194.16;5091103;28;20797;-84
2021/11/13 11:02:08;;;;;;;0.10;0.10;;;;;;;16.24;68.25;101197.69;5058791;28;20043;-83
2021/11/13 11:04:37;;;;;;;0.10;0.10;;;;;;;16.27;68.39;101200.22;5051017;28;20040;-82
2021/11/13 11:07:15;;;;;;;0.10;0.10;;;;;;;16.39;68.25;101204.25;5051246;28;20025;-83
2021/11/13 11:12:29;;;;;;;0.10;0.10;;;;;;;16.70;67.28;101204.84;5113288;27;20403;-83
2021/11/13 11:14:56;;;;;;;0.10;0.10;;;;;;;16.90;67.79;101204.06;5112499;28;20040;-84
2021/11/13 11:17:26;;;;;;;0.10;0.10;;;;;;;17.05;67.50;101203.44;5111956;28;20111;-83
2021/11/13 11:19:54;;;;;;;0.00;0.00;;;;;;;17.12;67.23;101209.41;5111571;28;20371;-84
2021/11/13 11:22:24;;;;;;;0.10;0.10;;;;;;;17.18;67.05;101203.78;5111615;28;20122;-84
2021/11/13 11:24:55;;;;;;;0.10;0.10;;;;;;;17.17;66.37;101201.19;5111132;28;20115;-83
2021/11/13 11:30:06;;;;;;;0.10;0.10;;;;;;;17.07;66.48;101212.28;5112169;27;20395;-84
2021/11/13 11:32:37;;;;;;;0.10;0.10;;;;;;;17.08;66.10;101211.34;5111493;28;20077;-83
2021/11/13 11:35:09;;;;;;;0.10;0.10;;;;;;;17.09;65.84;101212.22;5111336;28;20024;-84
2021/11/13 11:37:38;;;;;;;0.38;0.38;;;;;;;17.06;64.86;101207.88;5111542;28;20024;-84
2021/11/13 11:40:12;;;;;;;0.10;0.10;;;;;;;17.09;64.74;101218.44;5111773;28;20038;-84
2021/11/13 11:42:40;;;;;;;0.10;0.10;;;;;;;17.03;64.71;101210.66;5112739;28;20028;-85
2021/11/13 11:45:08;;;;;;;0.10;0.10;;;;;;;17.04;65.41;101211.56;5112714;28;20027;-82
2021/11/13 11:47:35;;;;;;;0.10;0.10;;;;;;;17.07;66.09;101217.66;5112104;28;20386;-81